sensor_id;sensor_type;location;lat;lon;timestamp;P1;durP1;ratioP1;P2;durP2;ratioP2
75746;SDS011;70632;52.232;21.038;2024-01-27T00:01:33;23.50;;;9.98;;
75746;SDS011;70632;52.232;21.038;2024-01-27T00:03:59;18.15;;;9.50;;
75746;SDS011;70632;52.232;21.038;2024-01-27T00:06:24;17.85;;;8.43;;
75746;SDS011;70632;52.232;21.038;2024-01-27T00:08:50;12.13;;;5.05;;
75746;SDS011;70632;52.232;21.038;2024-01-27T00:11:16;10.48;;;4.45;;
75746;SDS011;70632;52.232;21.038;2024-01-27T00:13:41;11.90;;;3.72;;
75746;SDS011;70632;52.232;21.038;2024-01-27T00:16:08;9.88;;;4.07;;
75746;SDS011;70632;52.232;21.038;2024-01-27T00:18:37;6.78;;;3.55;;
75746;SDS011;70632;52.232;21.038;2024-01-27T00:21:04;9.60;;;3.58;;
75746;SDS011;70632;52.232;21.038;2024-01-27T00:23:31;9.05;;;2.78;;
75746;SDS011;70632;52.232;21.038;2024-01-27T00:25:58;7.63;;;2.13;;
75746;SDS011;70632;52.232;21.038;2024-01-27T00:28:23;4.82;;;2.10;;
75746;SDS011;70632;52.232;21.038;2024-01-27T00:30:49;8.00;;;2.30;;
75746;SDS011;70632;52.232;21.038;2024-01-27T00:33:15;4.45;;;1.38;;
75746;SDS011;70632;52.232;21.038;2024-01-27T00:35:41;5.60;;;2.08;;
75746;SDS011;70632;52.232;21.038;2024-01-27T00:38:07;4.70;;;1.90;;
75746;SDS011;70632;52.232;21.038;2024-01-27T00:40:33;4.88;;;1.45;;
75746;SDS011;70632;52.232;21.038;2024-01-27T00:42:58;4.40;;;1.52;;
75746;SDS011;70632;52.232;21.038;2024-01-27T00:45:24;9.05;;;2.72;;
75746;SDS011;70632;52.232;21.038;2024-01-27T00:47:52;6.63;;;2.33;;
75746;SDS011;70632;52.232;21.038;2024-01-27T00:50:18;7.30;;;2.05;;
75746;SDS011;70632;52.232;21.038;2024-01-27T00:52:44;4.40;;;1.63;;
75746;SDS011;70632;52.232;21.038;2024-01-27T00:55:10;6.20;;;1.83;;
75746;SDS011;70632;52.232;21.038;2024-01-27T00:57:36;5.93;;;1.38;;
75746;SDS011;70632;52.232;21.038;2024-01-27T01:00:07;12.40;;;3.97;;
75746;SDS011;70632;52.232;21.038;2024-01-27T01:02:33;9.52;;;1.90;;
75746;SDS011;70632;52.232;21.038;2024-01-27T01:05:00;7.55;;;1.45;;
75746;SDS011;70632;52.232;21.038;2024-01-27T01:07:26;6.80;;;1.77;;
75746;SDS011;70632;52.232;21.038;2024-01-27T01:09:51;9.82;;;1.98;;
75746;SDS011;70632;52.232;21.038;2024-01-27T01:12:17;4.13;;;2.00;;
75746;SDS011;70632;52.232;21.038;2024-01-27T01:14:43;6.85;;;1.73;;
75746;SDS011;70632;52.232;21.038;2024-01-27T01:17:09;8.75;;;1.80;;
75746;SDS011;70632;52.232;21.038;2024-01-27T01:19:36;11.45;;;1.50;;
75746;SDS011;70632;52.232;21.038;2024-01-27T01:22:03;9.93;;;1.90;;
75746;SDS011;70632;52.232;21.038;2024-01-27T01:24:30;7.43;;;2.00;;
75746;SDS011;70632;52.232;21.038;2024-01-27T01:26:55;7.47;;;2.50;;
75746;SDS011;70632;52.232;21.038;2024-01-27T01:29:22;11.60;;;2.10;;
75746;SDS011;70632;52.232;21.038;2024-01-27T01:31:47;7.93;;;1.65;;
75746;SDS011;70632;52.232;21.038;2024-01-27T01:34:14;5.22;;;1.73;;
75746;SDS011;70632;52.232;21.038;2024-01-27T01:36:40;7.07;;;1.77;;
75746;SDS011;70632;52.232;21.038;2024-01-27T01:39:06;10.40;;;2.10;;
75746;SDS011;70632;52.232;21.038;2024-01-27T01:41:32;6.55;;;1.90;;
75746;SDS011;70632;52.232;21.038;2024-01-27T01:43:58;7.55;;;1.58;;
75746;SDS011;70632;52.232;21.038;2024-01-27T01:46:24;7.65;;;1.83;;
75746;SDS011;70632;52.232;21.038;2024-01-27T01:48:50;11.65;;;2.58;;
75746;SDS011;70632;52.232;21.038;2024-01-27T01:51:16;13.70;;;2.10;;
75746;SDS011;70632;52.232;21.038;2024-01-27T01:53:43;8.23;;;2.38;;
75746;SDS011;70632;52.232;21.038;2024-01-27T01:56:10;7.95;;;2.28;;
75746;SDS011;70632;52.232;21.038;2024-01-27T02:01:05;7.03;;;1.80;;
75746;SDS011;70632;52.232;21.038;2024-01-27T02:03:31;10.60;;;2.30;;
75746;SDS011;70632;52.232;21.038;2024-01-27T02:05:56;6.70;;;2.38;;
75746;SDS011;70632;52.232;21.038;2024-01-27T02:08:22;8.90;;;2.25;;
75746;SDS011;70632;52.232;21.038;2024-01-27T02:10:48;14.57;;;2.67;;
75746;SDS011;70632;52.232;21.038;2024-01-27T02:13:20;6.80;;;1.75;;
75746;SDS011;70632;52.232;21.038;2024-01-27T02:15:48;9.27;;;2.83;;
75746;SDS011;70632;52.232;21.038;2024-01-27T02:18:15;5.35;;;1.65;;
75746;SDS011;70632;52.232;21.038;2024-01-27T02:20:41;7.20;;;2.20;;
75746;SDS011;70632;52.232;21.038;2024-01-27T02:23:08;8.60;;;2.72;;
75746;SDS011;70632;52.232;21.038;2024-01-27T02:25:34;9.55;;;3.28;;
75746;SDS011;70632;52.232;21.038;2024-01-27T02:28:01;6.90;;;3.30;;
75746;SDS011;70632;52.232;21.038;2024-01-27T02:30:29;12.93;;;2.63;;
75746;SDS011;70632;52.232;21.038;2024-01-27T02:32:58;7.45;;;2.40;;
75746;SDS011;70632;52.232;21.038;2024-01-27T02:35:24;16.55;;;2.80;;
75746;SDS011;70632;52.232;21.038;2024-01-27T02:37:50;17.15;;;3.33;;
75746;SDS011;70632;52.232;21.038;2024-01-27T02:40:15;6.13;;;1.83;;
